createdAt,value
2023-03-16T00:00:01.704Z,-0.10
2023-03-16T00:02:11.037Z,-0.20
2023-03-16T00:04:16.288Z,-0.10
2023-03-16T00:06:22.306Z,-0.10
2023-03-16T00:08:28.639Z,-0.10
2023-03-16T00:10:33.689Z,-0.10
2023-03-16T00:12:44.056Z,-0.20
2023-03-16T00:14:51.879Z,-0.20
2023-03-16T00:16:57.142Z,-0.20
2023-03-16T00:19:03.744Z,-0.20
2023-03-16T00:21:09.178Z,-0.20
2023-03-16T00:23:14.213Z,-0.20
2023-03-16T00:25:19.886Z,-0.40
2023-03-16T00:27:27.929Z,-0.90
2023-03-16T00:29:36.117Z,-1.00
2023-03-16T00:31:43.909Z,-0.70
2023-03-16T00:33:49.076Z,-0.60
2023-03-16T00:36:02.117Z,-0.50
2023-03-16T00:38:08.175Z,-0.40
2023-03-16T00:40:15.452Z,-0.40
2023-03-16T00:42:27.658Z,-0.40
2023-03-16T00:44:35.263Z,-0.50
2023-03-16T00:46:42.885Z,-0.50
2023-03-16T00:48:49.866Z,-0.40
2023-03-16T00:50:55.361Z,-0.40
2023-03-16T00:53:00.594Z,-0.40
2023-03-16T00:55:09.210Z,-0.50
2023-03-16T00:57:16.459Z,-0.60
2023-03-16T00:59:26.226Z,-0.70
2023-03-16T01:01:34.892Z,-0.70
2023-03-16T01:03:42.144Z,-0.60
2023-03-16T01:05:47.138Z,-0.70
2023-03-16T01:07:52.372Z,-0.70
2023-03-16T01:09:58.265Z,-0.70
2023-03-16T01:12:06.213Z,-0.70
2023-03-16T01:14:13.553Z,-0.70
2023-03-16T01:16:23.327Z,-0.70
2023-03-16T01:18:34.458Z,-0.60
2023-03-16T01:20:39.443Z,-0.70
2023-03-16T01:22:46.388Z,-0.60
2023-03-16T01:24:51.454Z,-0.70
2023-03-16T01:26:56.642Z,-0.60
2023-03-16T01:29:02.593Z,-0.60
2023-03-16T01:31:10.756Z,-0.60
2023-03-16T01:33:17.256Z,-0.70
2023-03-16T01:35:25.000Z,-0.70
2023-03-16T01:37:30.246Z,-0.60
2023-03-16T01:39:38.509Z,-0.60
2023-03-16T01:41:46.941Z,-0.80
2023-03-16T01:43:54.046Z,-1.00
2023-03-16T01:46:25.117Z,-1.00
2023-03-16T01:48:37.552Z,-1.00
2023-03-16T01:50:46.683Z,-0.80
2023-03-16T01:52:52.246Z,-0.80
2023-03-16T01:55:03.322Z,-0.80
2023-03-16T01:57:12.794Z,-0.80
2023-03-16T01:59:25.177Z,-0.80
2023-03-16T02:01:32.230Z,-0.90
2023-03-16T02:03:38.226Z,-0.90
2023-03-16T02:06:01.706Z,-0.90
2023-03-16T02:08:10.158Z,-1.10
2023-03-16T02:10:17.167Z,-1.10
2023-03-16T02:12:24.861Z,-1.00
2023-03-16T02:14:33.072Z,-1.00
2023-03-16T02:16:40.118Z,-0.90
2023-03-16T02:18:45.140Z,-1.10
2023-03-16T02:21:03.004Z,-1.20
2023-03-16T02:23:18.640Z,-1.30
2023-03-16T02:25:32.095Z,-1.30
2023-03-16T02:27:45.806Z,-1.40
2023-03-16T02:30:07.867Z,-1.30
2023-03-16T02:32:22.410Z,-1.30
2023-03-16T02:34:29.696Z,-1.20
2023-03-16T02:36:37.328Z,-1.20
2023-03-16T02:38:42.702Z,-1.20
2023-03-16T02:40:58.925Z,-1.20
2023-03-16T02:43:07.835Z,-1.20
2023-03-16T02:45:20.812Z,-1.10
2023-03-16T02:47:37.076Z,-1.10
2023-03-16T02:49:48.929Z,-1.10
2023-03-16T02:51:54.268Z,-1.20
2023-03-16T02:53:59.690Z,-1.10
2023-03-16T02:56:09.959Z,-1.20
2023-03-16T02:58:16.413Z,-1.20
2023-03-16T03:00:25.646Z,-1.30
2023-03-16T03:02:32.074Z,-1.30
2023-03-16T03:04:37.255Z,-1.30
2023-03-16T03:06:44.807Z,-1.30
2023-03-16T03:08:52.479Z,-1.30
2023-03-16T03:10:57.952Z,-1.30
2023-03-16T03:13:03.405Z,-1.30
2023-03-16T03:15:10.806Z,-1.30
2023-03-16T03:17:31.272Z,-1.30
2023-03-16T03:19:36.654Z,-1.30
2023-03-16T03:21:41.563Z,-1.40
2023-03-16T03:23:47.627Z,-1.40
2023-03-16T03:25:55.576Z,-1.30
2023-03-16T03:28:02.115Z,-1.30
2023-03-16T03:30:14.729Z,-1.30
2023-03-16T03:32:20.040Z,-1.30
2023-03-16T03:34:28.354Z,-1.30
2023-03-16T03:36:34.160Z,-1.30
2023-03-16T03:38:40.772Z,-1.30
2023-03-16T03:40:46.699Z,-1.40
2023-03-16T03:42:52.982Z,-1.40
2023-03-16T03:44:57.952Z,-1.40
2023-03-16T03:47:05.826Z,-1.50
2023-03-16T03:49:13.254Z,-1.40
2023-03-16T03:51:21.782Z,-1.50
2023-03-16T03:53:39.328Z,-1.50
2023-03-16T03:56:01.930Z,-1.50
2023-03-16T03:58:06.984Z,-1.40
2023-03-16T04:00:14.581Z,-1.50
2023-03-16T04:02:21.071Z,-1.50
2023-03-16T04:04:29.021Z,-1.50
2023-03-16T04:06:38.721Z,-1.50
2023-03-16T04:08:46.524Z,-1.60
2023-03-16T04:10:56.109Z,-1.60
2023-03-16T04:13:03.547Z,-1.60
2023-03-16T04:15:14.731Z,-1.60
2023-03-16T04:17:30.961Z,-1.60
2023-03-16T04:19:39.212Z,-1.50
2023-03-16T04:21:52.773Z,-1.60
2023-03-16T04:23:58.302Z,-1.50
2023-03-16T04:26:10.928Z,-1.60
2023-03-16T04:28:18.039Z,-1.70
2023-03-16T04:30:26.492Z,-1.80
2023-03-16T04:32:40.033Z,-1.70
2023-03-16T04:34:48.433Z,-1.70
2023-03-16T04:36:58.086Z,-1.60
2023-03-16T04:39:02.923Z,-1.60
2023-03-16T04:41:11.407Z,-1.70
2023-03-16T04:43:22.931Z,-1.80
2023-03-16T04:45:32.700Z,-1.80
2023-03-16T04:47:38.447Z,-1.80
2023-03-16T04:49:44.599Z,-1.70
2023-03-16T04:51:53.011Z,-1.80
2023-03-16T04:54:01.963Z,-1.90
2023-03-16T04:56:18.098Z,-1.90
2023-03-16T04:58:26.429Z,-1.90
2023-03-16T05:00:33.665Z,-1.90
2023-03-16T05:02:47.200Z,-1.90
2023-03-16T05:04:52.419Z,-1.80
2023-03-16T05:06:58.270Z,-2.00
2023-03-16T05:09:11.230Z,-2.00
2023-03-16T05:11:18.152Z,-2.00
2023-03-16T05:13:33.135Z,-2.00
2023-03-16T05:15:40.259Z,-2.00
2023-03-16T05:18:02.673Z,-2.10
2023-03-16T05:20:13.996Z,-2.10
2023-03-16T05:22:23.867Z,-2.00
2023-03-16T05:24:49.424Z,-2.00
2023-03-16T05:26:57.576Z,-2.00
2023-03-16T05:29:03.534Z,-2.00
2023-03-16T05:31:11.913Z,-1.90
2023-03-16T05:33:29.699Z,-2.00
2023-03-16T05:35:43.096Z,-2.00
2023-03-16T05:37:55.006Z,-2.00
2023-03-16T05:40:12.057Z,-2.00
2023-03-16T05:42:19.884Z,-1.90
2023-03-16T05:44:30.176Z,-1.90
2023-03-16T05:46:54.899Z,-1.90
2023-03-16T05:49:03.002Z,-1.90
2023-03-16T05:51:09.257Z,-2.00
2023-03-16T05:53:15.457Z,-1.90
2023-03-16T05:55:24.748Z,-1.90
2023-03-16T05:57:34.836Z,-1.90
2023-03-16T05:59:39.732Z,-2.00
2023-03-16T06:01:50.216Z,-2.00
2023-03-16T06:03:56.265Z,-2.00
2023-03-16T06:06:04.794Z,-1.90
2023-03-16T06:08:17.532Z,-1.80
2023-03-16T06:10:28.649Z,-1.90
2023-03-16T06:12:34.677Z,-1.80
2023-03-16T06:14:40.082Z,-1.80
2023-03-16T06:16:46.272Z,-1.80
2023-03-16T06:18:53.209Z,-1.90
2023-03-16T06:20:59.593Z,-1.80
2023-03-16T06:23:04.921Z,-1.80
2023-03-16T06:25:12.871Z,-1.70
2023-03-16T06:27:26.532Z,-1.70
2023-03-16T06:29:47.228Z,-1.80
2023-03-16T06:31:52.864Z,-1.80
2023-03-16T06:33:58.193Z,-1.70
2023-03-16T06:36:03.217Z,-1.70
2023-03-16T06:38:12.920Z,-1.50
2023-03-16T06:40:37.185Z,-1.50
2023-03-16T06:42:47.438Z,-1.50
2023-03-16T06:44:57.808Z,-1.50
2023-03-16T06:47:04.111Z,-1.40
2023-03-16T06:49:09.357Z,-1.40
2023-03-16T06:51:16.754Z,-1.60
2023-03-16T06:53:23.367Z,-1.60
2023-03-16T06:55:32.104Z,-1.50
2023-03-16T06:57:39.376Z,-1.50
2023-03-16T06:59:47.384Z,-1.30
2023-03-16T07:01:54.211Z,-1.30
2023-03-16T07:04:01.854Z,-1.30
2023-03-16T07:06:10.088Z,-1.30
2023-03-16T07:08:15.225Z,-1.20
2023-03-16T07:10:22.131Z,-1.20
2023-03-16T07:12:28.345Z,-1.10
2023-03-16T07:14:33.995Z,-1.20
2023-03-16T07:16:41.629Z,-1.30
2023-03-16T07:18:47.984Z,-1.30
2023-03-16T07:20:56.800Z,-1.20
2023-03-16T07:23:04.737Z,-1.10
2023-03-16T07:25:14.302Z,-1.00
2023-03-16T07:27:28.855Z,-0.90
2023-03-16T07:29:35.795Z,-0.90
2023-03-16T07:31:45.044Z,-0.90
2023-03-16T07:33:55.766Z,-0.80
2023-03-16T07:36:12.116Z,-0.80
2023-03-16T07:38:25.696Z,-0.80
2023-03-16T07:40:31.749Z,-0.70
2023-03-16T07:42:46.767Z,-0.70
2023-03-16T07:44:55.138Z,-0.70
2023-03-16T07:47:02.962Z,-0.60
2023-03-16T07:49:10.764Z,-0.60
2023-03-16T07:51:17.941Z,-0.50
2023-03-16T07:53:28.346Z,-0.40
2023-03-16T07:55:50.402Z,-0.40
2023-03-16T07:58:01.618Z,-0.40
2023-03-16T08:00:16.627Z,-0.30
2023-03-16T08:02:27.656Z,-0.30
2023-03-16T08:04:38.276Z,-0.20
2023-03-16T08:06:43.384Z,-0.20
2023-03-16T08:08:48.444Z,0.00
2023-03-16T08:11:03.878Z,0.10
2023-03-16T08:13:22.334Z,0.20
2023-03-16T08:15:27.701Z,0.30
2023-03-16T08:17:43.168Z,0.40
2023-03-16T08:19:53.688Z,0.50
2023-03-16T08:22:02.304Z,0.50
2023-03-16T08:24:17.071Z,0.60
2023-03-16T08:26:23.316Z,0.70
2023-03-16T08:28:34.760Z,0.80
2023-03-16T08:30:49.562Z,0.90
2023-03-16T08:33:13.733Z,1.00
2023-03-16T08:35:20.086Z,1.10
2023-03-16T08:37:27.595Z,1.20
2023-03-16T08:39:37.634Z,1.30
2023-03-16T08:41:48.280Z,1.70
2023-03-16T08:44:03.331Z,1.80
2023-03-16T08:46:09.282Z,1.90
2023-03-16T08:48:26.662Z,1.80
2023-03-16T08:50:31.862Z,2.00
2023-03-16T08:52:40.076Z,2.10
2023-03-16T08:55:01.442Z,2.00
2023-03-16T08:57:09.580Z,2.20
2023-03-16T08:59:27.291Z,2.20
2023-03-16T09:01:38.214Z,2.60
2023-03-16T09:03:47.395Z,2.60
2023-03-16T09:05:53.368Z,2.60
2023-03-16T09:07:59.066Z,2.50
2023-03-16T09:10:05.609Z,2.60
2023-03-16T09:12:11.215Z,2.80
2023-03-16T09:14:16.160Z,2.70
2023-03-16T09:16:25.626Z,2.80
2023-03-16T09:18:31.289Z,2.80
2023-03-16T09:20:39.328Z,3.10
2023-03-16T09:22:47.241Z,3.00
2023-03-16T09:24:52.260Z,2.90
2023-03-16T09:26:57.540Z,2.90
2023-03-16T09:29:06.933Z,2.90
2023-03-16T09:31:14.410Z,2.90
2023-03-16T09:33:19.564Z,3.00
2023-03-16T09:35:25.229Z,3.00
2023-03-16T09:37:44.601Z,3.10
2023-03-16T09:39:57.943Z,3.20
2023-03-16T09:42:17.524Z,3.30
2023-03-16T09:44:36.505Z,3.40
2023-03-16T09:46:49.686Z,3.40
2023-03-16T09:48:57.952Z,3.40
2023-03-16T09:51:06.230Z,3.30
2023-03-16T09:53:24.870Z,3.50
2023-03-16T09:55:34.864Z,3.70
2023-03-16T09:57:46.389Z,3.90
2023-03-16T09:59:55.000Z,3.90
2023-03-16T10:02:42.034Z,3.90
2023-03-16T10:04:58.658Z,3.90
2023-03-16T10:07:16.418Z,4.00
2023-03-16T10:09:35.272Z,4.00
2023-03-16T10:11:42.738Z,4.00
2023-03-16T10:13:55.278Z,4.00
2023-03-16T10:16:11.279Z,4.20
2023-03-16T10:18:23.588Z,4.10
2023-03-16T10:20:34.784Z,4.70
2023-03-16T10:22:47.138Z,4.80
2023-03-16T10:25:08.438Z,4.60
2023-03-16T10:27:23.174Z,5.00
2023-03-16T10:29:29.536Z,4.90
2023-03-16T10:31:41.436Z,4.60
2023-03-16T10:33:46.668Z,4.70
2023-03-16T10:35:56.903Z,4.70
2023-03-16T10:38:03.100Z,4.70
2023-03-16T10:40:14.601Z,4.70
2023-03-16T10:42:22.724Z,4.90
2023-03-16T10:44:32.128Z,5.00
2023-03-16T10:46:42.840Z,5.10
2023-03-16T10:49:01.741Z,5.10
2023-03-16T10:51:11.108Z,5.10
2023-03-16T10:53:24.122Z,5.20
2023-03-16T10:55:35.231Z,5.20
2023-03-16T10:57:45.487Z,5.30
2023-03-16T10:59:54.395Z,5.30
2023-03-16T11:02:03.672Z,5.40
2023-03-16T11:04:18.109Z,5.50
2023-03-16T11:06:26.322Z,5.60
2023-03-16T11:08:37.372Z,5.50
2023-03-16T11:10:55.881Z,5.70
2023-03-16T11:13:14.689Z,5.70
2023-03-16T11:15:27.411Z,5.90
2023-03-16T11:17:41.705Z,6.00
2023-03-16T11:19:55.606Z,6.00
2023-03-16T11:22:05.396Z,6.00
2023-03-16T11:24:23.082Z,6.00
2023-03-16T11:26:38.154Z,6.00
2023-03-16T11:28:50.449Z,6.00
2023-03-16T11:31:07.362Z,6.10
2023-03-16T11:33:15.401Z,6.20
2023-03-16T11:35:32.148Z,6.20
2023-03-16T11:37:53.641Z,6.30
2023-03-16T11:40:15.412Z,6.40
2023-03-16T11:42:34.724Z,6.40
2023-03-16T11:44:49.510Z,6.60
2023-03-16T11:47:06.306Z,6.70
2023-03-16T11:49:50.980Z,6.70
2023-03-16T11:52:05.563Z,6.70
2023-03-16T11:54:43.080Z,6.80
2023-03-16T11:56:58.001Z,6.80
2023-03-16T11:59:42.402Z,6.80
2023-03-16T12:02:16.608Z,7.00
2023-03-16T12:04:41.762Z,6.90
2023-03-16T12:07:03.202Z,7.00
2023-03-16T12:09:39.422Z,7.20
2023-03-16T12:11:55.319Z,7.40
2023-03-16T12:14:17.001Z,7.40
2023-03-16T12:16:46.390Z,7.40
2023-03-16T12:19:01.616Z,7.50
2023-03-16T12:21:15.005Z,7.40
2023-03-16T12:23:27.866Z,7.40
2023-03-16T12:25:39.592Z,7.30
2023-03-16T12:27:46.308Z,7.30
2023-03-16T12:30:09.529Z,7.30
2023-03-16T12:32:27.339Z,7.20
2023-03-16T12:34:41.993Z,7.30
2023-03-16T12:37:12.994Z,7.40
2023-03-16T12:39:35.219Z,7.40
2023-03-16T12:41:54.599Z,7.40
2023-03-16T12:44:16.677Z,7.50
2023-03-16T12:46:34.626Z,7.70
2023-03-16T12:48:50.752Z,8.20
2023-03-16T12:50:59.125Z,8.50
2023-03-16T12:53:04.125Z,8.80
2023-03-16T12:55:15.595Z,9.20
2023-03-16T12:57:21.587Z,9.50
2023-03-16T12:59:28.439Z,9.90
2023-03-16T13:01:41.577Z,10.20
2023-03-16T13:03:53.489Z,10.30
2023-03-16T13:06:03.465Z,10.40
2023-03-16T13:08:14.853Z,9.90
2023-03-16T13:10:22.318Z,9.60
2023-03-16T13:12:32.897Z,9.40
2023-03-16T13:14:42.684Z,9.70
2023-03-16T13:16:49.720Z,9.70
2023-03-16T13:18:58.583Z,9.80
2023-03-16T13:21:20.455Z,9.90
2023-03-16T13:23:30.219Z,10.10
2023-03-16T13:25:45.649Z,10.00
2023-03-16T13:27:58.113Z,9.60
2023-03-16T13:30:05.588Z,9.30
2023-03-16T13:32:20.618Z,9.10
2023-03-16T13:34:33.355Z,9.10
2023-03-16T13:36:39.395Z,9.20
2023-03-16T13:38:44.715Z,9.20
2023-03-16T13:40:56.832Z,9.20
2023-03-16T13:43:04.838Z,9.10
2023-03-16T13:45:21.845Z,9.00
2023-03-16T13:47:29.870Z,9.00
2023-03-16T13:49:45.575Z,8.90
2023-03-16T13:51:54.794Z,8.90
2023-03-16T13:53:59.928Z,8.90
2023-03-16T13:56:05.956Z,8.90
2023-03-16T13:58:26.606Z,9.00
2023-03-16T14:00:37.020Z,9.10
2023-03-16T14:02:48.903Z,9.10
2023-03-16T14:04:59.570Z,9.30
2023-03-16T14:07:09.514Z,9.40
2023-03-16T14:09:23.732Z,9.30
2023-03-16T14:11:29.633Z,9.30
2023-03-16T14:13:38.478Z,9.20
2023-03-16T14:15:45.434Z,9.30
2023-03-16T14:17:50.961Z,9.20
2023-03-16T14:20:04.237Z,9.10
2023-03-16T14:22:09.398Z,9.00
2023-03-16T14:24:31.324Z,9.00
2023-03-16T14:26:46.763Z,9.00
2023-03-16T14:29:07.036Z,9.00
2023-03-16T14:31:16.005Z,9.00
2023-03-16T14:33:32.607Z,9.20
2023-03-16T14:35:46.377Z,9.20
2023-03-16T14:37:52.038Z,9.30
2023-03-16T14:40:06.035Z,9.40
2023-03-16T14:42:24.140Z,9.70
2023-03-16T14:44:34.460Z,9.90
2023-03-16T14:46:43.367Z,9.80
2023-03-16T14:48:48.502Z,9.70
2023-03-16T14:51:00.853Z,9.60
2023-03-16T14:53:08.699Z,9.90
2023-03-16T14:55:19.525Z,10.10
2023-03-16T14:57:28.554Z,10.10
2023-03-16T14:59:34.052Z,10.20
2023-03-16T15:01:39.691Z,10.20
2023-03-16T15:03:45.361Z,10.50
2023-03-16T15:05:56.184Z,10.40
2023-03-16T15:08:01.728Z,10.50
2023-03-16T15:10:19.562Z,10.40
2023-03-16T15:12:27.373Z,10.20
2023-03-16T15:14:44.817Z,10.00
2023-03-16T15:16:52.049Z,9.80
2023-03-16T15:19:02.680Z,9.60
2023-03-16T15:21:15.690Z,9.60
2023-03-16T15:23:20.794Z,9.50
2023-03-16T15:25:37.457Z,9.40
2023-03-16T15:27:43.301Z,9.40
2023-03-16T15:29:48.482Z,9.40
2023-03-16T15:31:54.760Z,9.40
2023-03-16T15:34:02.299Z,9.30
2023-03-16T15:36:18.485Z,9.40
2023-03-16T15:38:26.674Z,9.30
2023-03-16T15:40:33.703Z,9.30
2023-03-16T15:42:39.104Z,9.30
2023-03-16T15:44:44.989Z,9.30
2023-03-16T15:46:51.360Z,9.30
2023-03-16T15:48:56.421Z,9.30
2023-03-16T15:51:10.040Z,9.40
2023-03-16T15:53:31.105Z,9.40
2023-03-16T15:55:44.648Z,9.40
2023-03-16T15:57:58.871Z,9.50
2023-03-16T16:00:09.177Z,9.40
2023-03-16T16:02:31.994Z,9.30
2023-03-16T16:04:37.192Z,9.20
2023-03-16T16:06:42.496Z,9.20
2023-03-16T16:08:49.993Z,9.20
2023-03-16T16:10:55.476Z,9.30
2023-03-16T16:13:01.669Z,9.30
2023-03-16T16:15:18.607Z,9.30
2023-03-16T16:17:42.585Z,9.30
2023-03-16T16:19:51.078Z,9.30
2023-03-16T16:21:58.876Z,9.30
2023-03-16T16:24:06.864Z,9.30
2023-03-16T16:26:46.987Z,9.40
2023-03-16T16:28:53.052Z,9.50
2023-03-16T16:30:58.727Z,9.50
2023-03-16T16:33:07.040Z,9.50
2023-03-16T16:35:16.550Z,9.50
2023-03-16T16:37:22.703Z,9.40
2023-03-16T16:39:31.065Z,9.30
2023-03-16T16:41:38.141Z,9.20
2023-03-16T16:43:48.140Z,9.10
2023-03-16T16:45:53.506Z,9.00
2023-03-16T16:47:59.285Z,9.00
2023-03-16T16:50:04.245Z,8.90
2023-03-16T16:52:15.515Z,8.90
2023-03-16T16:54:24.298Z,8.80
2023-03-16T16:56:41.282Z,8.70
2023-03-16T16:58:47.378Z,8.60
2023-03-16T17:00:57.949Z,8.50
2023-03-16T17:03:03.000Z,8.40
2023-03-16T17:05:09.408Z,8.40
2023-03-16T17:07:18.097Z,8.30
2023-03-16T17:09:23.620Z,8.30
2023-03-16T17:11:35.162Z,8.30
2023-03-16T17:13:46.217Z,8.10
2023-03-16T17:15:51.477Z,8.00
2023-03-16T17:18:03.890Z,8.00
2023-03-16T17:20:19.497Z,7.90
2023-03-16T17:22:28.399Z,7.80
2023-03-16T17:24:33.353Z,7.80
2023-03-16T17:26:48.001Z,7.70
2023-03-16T17:28:58.621Z,7.70
2023-03-16T17:31:05.728Z,7.60
2023-03-16T17:33:17.452Z,7.60
2023-03-16T17:35:25.260Z,7.50
2023-03-16T17:37:30.321Z,7.50
2023-03-16T17:39:38.472Z,7.40
2023-03-16T17:41:47.594Z,7.30
2023-03-16T17:43:54.495Z,7.30
2023-03-16T17:45:59.443Z,7.30
2023-03-16T17:48:05.280Z,7.20
2023-03-16T17:50:20.472Z,7.20
2023-03-16T17:52:27.734Z,7.10
2023-03-16T17:54:33.963Z,7.00
2023-03-16T17:56:40.331Z,7.00
2023-03-16T17:58:49.234Z,7.00
2023-03-16T18:00:55.340Z,6.90
2023-03-16T18:03:03.329Z,6.90
2023-03-16T18:05:20.693Z,6.90
2023-03-16T18:07:27.854Z,6.90
2023-03-16T18:09:35.011Z,6.80
2023-03-16T18:11:42.210Z,6.80
2023-03-16T18:13:53.731Z,6.70
2023-03-16T18:15:59.836Z,6.70
2023-03-16T18:18:09.412Z,6.70
2023-03-16T18:20:34.274Z,6.70
2023-03-16T18:22:39.322Z,6.70
2023-03-16T18:24:45.024Z,6.70
2023-03-16T18:26:50.485Z,6.60
2023-03-16T18:29:00.320Z,6.60
2023-03-16T18:31:08.816Z,6.60
2023-03-16T18:33:26.423Z,6.60
2023-03-16T18:35:32.204Z,6.60
2023-03-16T18:37:37.720Z,6.60
2023-03-16T18:39:42.870Z,6.50
2023-03-16T18:41:48.294Z,6.50
2023-03-16T18:43:54.611Z,6.50
2023-03-16T18:46:04.744Z,6.50
2023-03-16T18:48:24.826Z,6.40
2023-03-16T18:50:33.276Z,6.50
2023-03-16T18:52:40.385Z,6.40
2023-03-16T18:54:47.463Z,6.50
2023-03-16T18:56:56.062Z,6.40
2023-03-16T18:59:03.300Z,6.40
2023-03-16T19:01:23.537Z,6.40
2023-03-16T19:03:36.185Z,6.40
2023-03-16T19:05:41.785Z,6.40
2023-03-16T19:07:52.727Z,6.30
2023-03-16T19:09:58.450Z,6.30
2023-03-16T19:12:07.333Z,6.30
2023-03-16T19:14:19.282Z,6.30
2023-03-16T19:16:27.757Z,6.20
2023-03-16T19:18:34.842Z,6.20
2023-03-16T19:20:45.061Z,6.20
2023-03-16T19:22:53.740Z,6.20
2023-03-16T19:25:04.731Z,6.20
2023-03-16T19:27:19.545Z,6.20
2023-03-16T19:29:32.684Z,6.10
2023-03-16T19:31:43.499Z,6.10
2023-03-16T19:33:52.009Z,6.20
2023-03-16T19:35:59.181Z,6.10
2023-03-16T19:38:04.760Z,6.10
2023-03-16T19:40:10.857Z,6.10
2023-03-16T19:42:24.428Z,6.10
2023-03-16T19:44:31.758Z,6.00
2023-03-16T19:46:41.872Z,6.00
2023-03-16T19:48:47.607Z,6.00
2023-03-16T19:50:53.452Z,6.00
2023-03-16T19:53:02.995Z,6.00
2023-03-16T19:55:09.645Z,6.00
2023-03-16T19:57:19.595Z,5.90
2023-03-16T19:59:26.738Z,5.90
2023-03-16T20:01:35.090Z,5.90
2023-03-16T20:03:44.914Z,5.90
2023-03-16T20:05:51.243Z,5.90
2023-03-16T20:07:57.066Z,6.00
2023-03-16T20:10:02.036Z,5.90
2023-03-16T20:12:08.324Z,5.90
2023-03-16T20:14:27.012Z,5.90
2023-03-16T20:16:36.409Z,5.90
2023-03-16T20:18:45.202Z,5.90
2023-03-16T20:20:52.619Z,5.80
2023-03-16T20:23:03.832Z,5.80
2023-03-16T20:25:09.623Z,5.80
2023-03-16T20:27:15.717Z,5.80
2023-03-16T20:29:32.141Z,5.80
2023-03-16T20:31:38.660Z,5.80
2023-03-16T20:33:46.710Z,5.70
2023-03-16T20:35:56.199Z,5.70
2023-03-16T20:38:01.215Z,5.70
2023-03-16T20:40:06.384Z,5.70
2023-03-16T20:42:19.379Z,5.70
2023-03-16T20:44:26.549Z,5.70
2023-03-16T20:46:35.801Z,5.80
2023-03-16T20:48:42.274Z,5.70
2023-03-16T20:50:52.555Z,5.70
2023-03-16T20:52:58.841Z,5.70
2023-03-16T20:55:05.289Z,5.70
2023-03-16T20:57:18.813Z,5.60
2023-03-16T20:59:28.281Z,5.70
2023-03-16T21:01:44.088Z,5.60
2023-03-16T21:03:59.143Z,5.60
2023-03-16T21:06:23.054Z,5.60
2023-03-16T21:08:29.029Z,5.60
2023-03-16T21:10:36.546Z,5.70
2023-03-16T21:12:46.257Z,5.70
2023-03-16T21:14:53.096Z,5.70
2023-03-16T21:17:00.593Z,5.60
2023-03-16T21:19:05.486Z,5.60
2023-03-16T21:21:17.867Z,5.70
2023-03-16T21:23:25.889Z,5.70
2023-03-16T21:25:39.798Z,5.70
2023-03-16T21:27:47.666Z,5.70
2023-03-16T21:29:54.945Z,5.70
2023-03-16T21:31:59.883Z,5.80
2023-03-16T21:34:08.258Z,5.70
2023-03-16T21:36:26.188Z,5.60
2023-03-16T21:38:35.092Z,5.60
2023-03-16T21:40:40.228Z,5.70
2023-03-16T21:42:45.425Z,5.70
2023-03-16T21:44:52.861Z,5.60
2023-03-16T21:47:00.319Z,5.60
2023-03-16T21:49:14.174Z,5.60
2023-03-16T21:51:25.268Z,5.70
2023-03-16T21:53:36.616Z,5.80
2023-03-16T21:55:43.231Z,5.70
2023-03-16T21:57:49.293Z,5.70
2023-03-16T21:59:56.501Z,5.60
2023-03-16T22:02:02.578Z,5.70
2023-03-16T22:04:19.998Z,5.60
2023-03-16T22:06:36.240Z,5.70
2023-03-16T22:08:42.675Z,5.70
2023-03-16T22:10:48.995Z,5.70
2023-03-16T22:12:55.645Z,5.60
2023-03-16T22:15:01.684Z,5.60
2023-03-16T22:17:10.264Z,5.70
2023-03-16T22:19:19.838Z,5.70
2023-03-16T22:21:33.869Z,5.70
2023-03-16T22:23:42.604Z,5.70
2023-03-16T22:25:48.610Z,5.70
2023-03-16T22:27:57.299Z,5.60
2023-03-16T22:30:02.242Z,5.70
2023-03-16T22:32:18.037Z,5.70
2023-03-16T22:34:31.374Z,5.70
2023-03-16T22:36:39.153Z,5.70
2023-03-16T22:38:46.487Z,5.70
2023-03-16T22:40:51.610Z,5.70
2023-03-16T22:43:04.648Z,5.70
2023-03-16T22:45:19.602Z,5.70
2023-03-16T22:47:28.997Z,5.70
2023-03-16T22:49:35.141Z,5.70
2023-03-16T22:51:43.338Z,5.70
2023-03-16T22:53:49.521Z,5.60
2023-03-16T22:55:59.359Z,5.60
2023-03-16T22:58:15.382Z,5.60
2023-03-16T23:00:23.459Z,5.60
2023-03-16T23:02:31.921Z,5.60
2023-03-16T23:04:40.290Z,5.60
2023-03-16T23:06:49.171Z,5.60
2023-03-16T23:08:58.261Z,5.60
2023-03-16T23:11:07.895Z,5.60
2023-03-16T23:13:21.316Z,5.70
2023-03-16T23:15:29.845Z,5.60
2023-03-16T23:17:36.483Z,5.50
2023-03-16T23:19:41.625Z,5.50
2023-03-16T23:21:49.500Z,5.50
2023-03-16T23:24:03.625Z,5.50
2023-03-16T23:26:20.647Z,5.50
2023-03-16T23:28:28.701Z,5.50
2023-03-16T23:30:34.854Z,5.50
2023-03-16T23:32:41.804Z,5.50
2023-03-16T23:34:47.205Z,5.50
2023-03-16T23:36:55.627Z,5.50
2023-03-16T23:39:07.678Z,5.40
2023-03-16T23:41:14.265Z,5.40
2023-03-16T23:43:21.799Z,5.40
2023-03-16T23:45:36.690Z,5.40
2023-03-16T23:47:44.985Z,5.40
2023-03-16T23:49:50.216Z,5.40
2023-03-16T23:52:07.314Z,5.50
2023-03-16T23:54:23.075Z,5.50
2023-03-16T23:56:29.883Z,5.50
2023-03-16T23:58:36.767Z,5.60
